createdAt,value
2018-06-27T00:00:47.972Z,68.80
2018-06-27T00:03:17.044Z,68.30
2018-06-27T00:05:46.132Z,67.90
2018-06-27T00:08:15.456Z,67.40
2018-06-27T00:10:44.529Z,67.70
2018-06-27T00:13:13.748Z,67.80
2018-06-27T00:15:42.808Z,67.80
2018-06-27T00:20:40.584Z,66.90
2018-06-27T00:23:09.628Z,67.60
2018-06-27T00:25:38.687Z,67.60
2018-06-27T00:30:36.470Z,68.30
2018-06-27T00:35:34.208Z,68.40
2018-06-27T00:38:03.264Z,68.90
2018-06-27T00:40:32.328Z,68.90
2018-06-27T00:43:01.376Z,69.40
2018-06-27T00:45:30.440Z,70.00
2018-06-27T00:50:29.092Z,71.00
2018-06-27T00:52:58.137Z,71.60
2018-06-27T00:57:56.156Z,73.50
2018-06-27T01:00:25.218Z,73.50
2018-06-27T01:05:22.951Z,75.10
2018-06-27T01:07:52.001Z,75.90
2018-06-27T01:12:49.772Z,76.60
2018-06-27T01:15:18.837Z,77.10
2018-06-27T01:17:52.923Z,78.30
2018-06-27T01:20:21.989Z,78.00
2018-06-27T01:25:20.538Z,78.50
2018-06-27T01:27:49.716Z,78.20
2018-06-27T01:30:18.782Z,77.70
2018-06-27T01:32:47.825Z,77.50
2018-06-27T01:35:16.892Z,77.50
2018-06-27T01:37:45.940Z,77.20
2018-06-27T01:40:15.021Z,77.10
2018-06-27T01:42:44.072Z,77.60
2018-06-27T01:45:13.111Z,78.10
2018-06-27T01:47:42.175Z,78.50
2018-06-27T01:50:11.216Z,79.10
2018-06-27T01:52:40.284Z,79.90
2018-06-27T01:55:09.323Z,80.40
2018-06-27T01:57:38.404Z,81.10
2018-06-27T02:00:08.075Z,81.10
2018-06-27T02:02:37.136Z,81.20
2018-06-27T02:05:06.187Z,80.90
2018-06-27T02:07:35.248Z,79.50
2018-06-27T02:10:04.440Z,79.80
2018-06-27T02:15:02.192Z,80.40
2018-06-27T02:17:31.255Z,81.10
2018-06-27T02:20:00.552Z,81.70
2018-06-27T02:22:29.616Z,82.20
2018-06-27T02:29:56.032Z,82.00
2018-06-27T02:32:25.100Z,81.80
2018-06-27T02:34:54.152Z,81.70
2018-06-27T02:37:23.261Z,81.20
2018-06-27T02:42:21.044Z,80.80
2018-06-27T02:44:50.088Z,80.80
2018-06-27T02:47:19.153Z,81.00
2018-06-27T02:49:48.246Z,81.40
2018-06-27T02:52:17.299Z,81.70
2018-06-27T02:54:46.376Z,82.10
2018-06-27T02:57:15.551Z,82.50
2018-06-27T02:59:44.604Z,83.20
2018-06-27T03:02:13.668Z,83.40
2018-06-27T03:04:42.720Z,82.90
2018-06-27T03:09:40.475Z,82.50
2018-06-27T03:14:38.241Z,82.20
2018-06-27T03:17:07.304Z,82.30
2018-06-27T03:19:36.358Z,82.20
2018-06-27T03:22:05.451Z,82.20
2018-06-27T03:24:34.499Z,82.20
2018-06-27T03:27:03.649Z,82.60
2018-06-27T03:29:32.692Z,82.60
2018-06-27T03:32:01.756Z,82.60
2018-06-27T03:36:59.484Z,82.60
2018-06-27T03:39:28.532Z,82.30
2018-06-27T03:44:26.263Z,82.50
2018-06-27T03:46:55.320Z,82.50
2018-06-27T03:49:24.364Z,82.30
2018-06-27T03:51:53.544Z,82.60
2018-06-27T03:54:22.583Z,82.90
2018-06-27T03:56:51.656Z,82.80
2018-06-27T03:59:20.713Z,83.40
2018-06-27T04:01:49.960Z,83.40
2018-06-27T04:04:19.155Z,83.90
2018-06-27T04:06:48.220Z,83.90
2018-06-27T04:09:17.283Z,83.80
2018-06-27T04:11:46.347Z,83.80
2018-06-27T04:14:15.416Z,83.50
2018-06-27T04:16:44.484Z,83.20
2018-06-27T04:19:13.521Z,82.90
2018-06-27T04:21:42.584Z,83.00
2018-06-27T04:24:11.627Z,82.90
2018-06-27T04:26:40.688Z,82.70
2018-06-27T04:29:09.757Z,83.00
2018-06-27T04:31:38.820Z,82.90
2018-06-27T04:34:07.855Z,82.70
2018-06-27T04:36:36.903Z,83.20
2018-06-27T04:39:08.295Z,82.40
2018-06-27T04:41:37.491Z,82.50
2018-06-27T04:44:06.559Z,82.30
2018-06-27T04:49:04.704Z,81.90
2018-06-27T04:51:34.288Z,81.80
2018-06-27T04:54:03.361Z,81.70
2018-06-27T04:59:01.096Z,81.40
2018-06-27T05:01:30.140Z,80.90
2018-06-27T05:08:56.555Z,80.40
2018-06-27T05:11:25.675Z,80.10
2018-06-27T05:13:54.760Z,79.70
2018-06-27T05:16:23.820Z,79.50
2018-06-27T05:18:52.880Z,79.10
2018-06-27T05:21:21.929Z,78.70
2018-06-27T05:23:50.991Z,78.50
2018-06-27T05:26:20.040Z,77.90
2018-06-27T05:28:49.120Z,77.50
2018-06-27T05:31:18.193Z,77.10
2018-06-27T05:33:47.261Z,76.50
2018-06-27T05:38:45.032Z,76.40
2018-06-27T05:41:14.076Z,76.10
2018-06-27T05:43:43.131Z,76.10
2018-06-27T05:48:41.023Z,75.90
2018-06-27T05:53:38.755Z,75.60
2018-06-27T05:56:07.812Z,75.60
2018-06-27T05:58:36.867Z,75.00
2018-06-27T06:01:05.949Z,74.60
2018-06-27T06:03:35.025Z,74.20
2018-06-27T06:06:04.075Z,74.30
2018-06-27T06:13:30.570Z,73.80
2018-06-27T06:15:59.619Z,74.00
2018-06-27T06:18:28.687Z,73.90
2018-06-27T06:20:57.738Z,73.90
2018-06-27T06:23:26.812Z,73.30
2018-06-27T06:25:55.857Z,73.20
2018-06-27T06:28:24.972Z,73.40
2018-06-27T06:30:54.024Z,72.70
2018-06-27T06:48:16.719Z,71.10
2018-06-27T06:50:45.768Z,69.60
2018-06-27T06:53:14.824Z,69.30
2018-06-27T06:55:43.884Z,69.90
2018-06-27T06:58:12.948Z,69.80
2018-06-27T07:03:10.744Z,68.90
2018-06-27T07:08:08.484Z,68.20
2018-06-27T07:10:37.528Z,68.80
2018-06-27T07:13:06.760Z,68.40
2018-06-27T07:15:36.148Z,67.40
2018-06-27T07:18:05.523Z,65.50
2018-06-27T07:23:03.297Z,64.30
2018-06-27T07:28:01.052Z,63.70
2018-06-27T07:30:30.188Z,62.60
2018-06-27T07:35:27.947Z,61.80
2018-06-27T07:37:57.092Z,61.50
2018-06-27T07:40:26.156Z,62.90
2018-06-27T07:42:55.199Z,62.60
2018-06-27T07:45:24.264Z,63.10
2018-06-27T07:47:53.308Z,61.90
2018-06-27T07:50:22.372Z,61.20
2018-06-27T07:52:51.750Z,60.50
2018-06-27T07:55:20.832Z,60.30
2018-06-27T08:00:18.976Z,57.00
2018-06-27T08:02:48.019Z,56.40
2018-06-27T08:05:17.086Z,56.50
2018-06-27T08:07:46.124Z,55.50
2018-06-27T08:10:15.420Z,56.20
2018-06-27T08:17:42.730Z,54.80
2018-06-27T08:20:11.749Z,53.50
2018-06-27T08:22:40.805Z,53.00
2018-06-27T08:27:38.579Z,54.90
2018-06-27T08:32:36.400Z,53.40
2018-06-27T08:35:05.465Z,53.10
2018-06-27T08:40:03.200Z,53.20
2018-06-27T08:42:32.248Z,50.70
2018-06-27T08:45:01.310Z,49.20
2018-06-27T08:47:30.357Z,49.10
2018-06-27T08:49:59.436Z,48.30
2018-06-27T08:52:28.488Z,49.20
2018-06-27T08:54:57.552Z,48.70
2018-06-27T08:57:26.601Z,49.00
2018-06-27T08:59:55.660Z,47.50
2018-06-27T09:02:24.703Z,48.60
2018-06-27T09:07:22.457Z,44.60
2018-06-27T09:09:51.536Z,45.10
2018-06-27T09:12:20.604Z,44.40
2018-06-27T09:14:49.678Z,45.10
2018-06-27T09:19:47.453Z,42.90
2018-06-27T09:22:16.505Z,43.10
2018-06-27T09:24:45.644Z,44.60
2018-06-27T09:27:14.697Z,43.70
2018-06-27T09:29:44.020Z,44.60
2018-06-27T09:32:13.064Z,46.20
2018-06-27T09:34:42.128Z,44.20
2018-06-27T09:37:11.184Z,44.80
2018-06-27T09:39:40.259Z,44.30
2018-06-27T09:42:09.304Z,46.30
2018-06-27T09:44:38.413Z,45.10
2018-06-27T09:47:07.460Z,43.40
2018-06-27T09:49:36.535Z,42.80
2018-06-27T09:52:05.616Z,44.40
2018-06-27T09:54:38.913Z,45.30
2018-06-27T09:59:37.228Z,44.00
2018-06-27T10:02:06.352Z,44.30
2018-06-27T10:07:04.037Z,44.50
2018-06-27T10:09:33.109Z,44.20
2018-06-27T10:12:02.164Z,44.80
2018-06-27T10:19:28.936Z,44.50
2018-06-27T10:21:57.984Z,43.40
2018-06-27T10:24:27.312Z,43.50
2018-06-27T10:26:56.360Z,44.70
2018-06-27T10:29:25.444Z,43.90
2018-06-27T10:31:54.522Z,42.40
2018-06-27T10:36:52.374Z,42.40
2018-06-27T10:39:21.518Z,42.60
2018-06-27T10:44:19.271Z,41.40
2018-06-27T10:46:48.335Z,39.10
2018-06-27T10:49:17.384Z,37.50
2018-06-27T10:54:15.149Z,39.20
2018-06-27T10:56:44.216Z,39.90
2018-06-27T10:59:13.260Z,38.10
2018-06-27T11:04:11.025Z,40.30
2018-06-27T11:06:40.090Z,41.80
2018-06-27T11:09:09.675Z,42.40
2018-06-27T11:11:38.745Z,42.40
2018-06-27T11:16:36.888Z,41.40
2018-06-27T11:19:05.928Z,42.20
2018-06-27T11:24:03.652Z,41.10
2018-06-27T11:26:32.707Z,42.50
2018-06-27T11:29:02.596Z,42.10
2018-06-27T11:31:31.660Z,41.20
2018-06-27T11:34:00.713Z,41.00
2018-06-27T11:41:27.200Z,41.30
2018-06-27T11:43:56.248Z,41.80
2018-06-27T11:46:25.340Z,39.20
2018-06-27T11:48:54.397Z,40.60
2018-06-27T11:51:23.465Z,38.00
2018-06-27T11:53:52.505Z,39.50
2018-06-27T11:56:21.764Z,36.40
2018-06-27T11:58:50.812Z,38.10
2018-06-27T12:01:19.879Z,39.20
2018-06-27T12:03:48.939Z,39.20
2018-06-27T12:06:18.016Z,39.10
2018-06-27T12:08:47.383Z,38.30
2018-06-27T12:11:16.600Z,38.10
2018-06-27T12:13:45.677Z,37.60
2018-06-27T12:16:14.736Z,37.90
2018-06-27T12:18:43.780Z,38.00
2018-06-27T12:21:12.849Z,37.90
2018-06-27T12:23:41.888Z,35.70
2018-06-27T12:26:11.180Z,37.10
2018-06-27T12:28:40.219Z,37.80
2018-06-27T12:36:06.840Z,39.00
2018-06-27T12:38:36.070Z,38.00
2018-06-27T12:41:05.096Z,38.80
2018-06-27T12:43:34.147Z,38.10
2018-06-27T12:46:03.207Z,38.40
2018-06-27T12:48:32.285Z,37.80
2018-06-27T12:53:30.201Z,35.60
2018-06-27T12:55:59.264Z,35.30
2018-06-27T13:00:57.068Z,36.40
2018-06-27T13:03:26.135Z,37.40
2018-06-27T13:05:55.207Z,37.70
2018-06-27T13:08:24.256Z,36.50
2018-06-27T13:10:53.316Z,32.90
2018-06-27T13:13:22.384Z,32.70
2018-06-27T13:15:51.458Z,31.10
2018-06-27T13:18:20.524Z,28.30
2018-06-27T13:20:49.592Z,31.10
2018-06-27T13:23:18.648Z,32.70
2018-06-27T13:25:47.732Z,30.20
2018-06-27T13:28:16.785Z,31.90
2018-06-27T13:30:45.836Z,31.60
2018-06-27T13:33:14.920Z,31.00
2018-06-27T13:35:43.971Z,31.20
2018-06-27T13:38:13.035Z,27.70
2018-06-27T13:40:42.084Z,26.80
2018-06-27T13:45:40.108Z,26.20
2018-06-27T13:48:09.184Z,28.10
2018-06-27T13:50:38.240Z,27.70
2018-06-27T13:53:07.301Z,28.50
2018-06-27T13:55:36.352Z,28.20
2018-06-27T14:05:31.880Z,32.60
2018-06-27T14:08:00.939Z,32.40
2018-06-27T14:10:29.979Z,35.10
2018-06-27T14:12:59.064Z,32.50
2018-06-27T14:15:29.045Z,30.70
2018-06-27T14:17:58.108Z,27.50
2018-06-27T14:20:27.153Z,26.60
2018-06-27T14:22:56.363Z,27.20
2018-06-27T14:25:25.436Z,25.30
2018-06-27T14:27:54.500Z,24.20
2018-06-27T14:32:52.310Z,27.00
2018-06-27T14:35:21.356Z,27.60
2018-06-27T14:37:50.465Z,28.80
2018-06-27T14:40:19.500Z,29.10
2018-06-27T14:42:48.580Z,31.00
2018-06-27T14:47:46.352Z,31.60
2018-06-27T14:52:44.092Z,31.70
2018-06-27T14:55:13.329Z,29.50
2018-06-27T14:57:42.289Z,29.70
2018-06-27T15:00:11.332Z,29.60
2018-06-27T15:02:40.420Z,28.50
2018-06-27T15:05:09.546Z,27.50
2018-06-27T15:07:38.603Z,25.40
2018-06-27T15:10:07.658Z,24.60
2018-06-27T15:12:36.744Z,24.70
2018-06-27T15:15:06.439Z,23.10
2018-06-27T15:17:35.504Z,23.80
2018-06-27T15:20:04.729Z,23.60
2018-06-27T15:22:33.801Z,23.40
2018-06-27T15:25:02.843Z,22.90
2018-06-27T15:27:31.913Z,22.70
2018-06-27T15:30:00.964Z,22.40
2018-06-27T15:32:30.073Z,21.40
2018-06-27T15:34:59.196Z,20.90
2018-06-27T15:37:28.271Z,20.80
2018-06-27T15:39:57.338Z,20.90
2018-06-27T15:42:26.409Z,20.80
2018-06-27T15:44:55.452Z,20.10
2018-06-27T15:47:24.728Z,18.00
2018-06-27T15:49:53.776Z,18.10
2018-06-27T15:54:51.516Z,18.60
2018-06-27T15:57:21.112Z,18.50
2018-06-27T15:59:53.808Z,17.80
2018-06-27T16:02:23.300Z,18.10
2018-06-27T16:04:52.348Z,19.00
2018-06-27T16:09:51.076Z,22.50
2018-06-27T16:12:20.160Z,22.60
2018-06-27T16:14:49.205Z,20.30
2018-06-27T16:17:18.533Z,19.60
2018-06-27T16:19:47.336Z,21.00
2018-06-27T16:24:45.353Z,20.90
2018-06-27T16:27:14.415Z,20.00
2018-06-27T16:32:12.146Z,20.70
2018-06-27T16:34:41.212Z,21.60
2018-06-27T16:37:10.265Z,20.90
2018-06-27T16:39:39.336Z,21.00
2018-06-27T16:42:08.384Z,21.60
2018-06-27T16:49:34.798Z,25.40
2018-06-27T16:52:03.846Z,27.60
2018-06-27T16:54:32.939Z,28.90
2018-06-27T16:59:30.722Z,31.40
2018-06-27T17:04:28.460Z,32.20
2018-06-27T17:06:57.543Z,33.80
2018-06-27T17:09:27.006Z,34.10
2018-06-27T17:16:53.456Z,29.90
2018-06-27T17:19:22.525Z,28.20
2018-06-27T17:21:51.569Z,26.20
2018-06-27T17:26:49.288Z,25.60
2018-06-27T17:29:18.353Z,25.20
2018-06-27T17:34:16.120Z,26.00
2018-06-27T17:36:45.164Z,24.70
2018-06-27T17:39:14.224Z,25.30
2018-06-27T17:44:11.952Z,22.70
2018-06-27T17:46:41.009Z,22.60
2018-06-27T17:49:10.073Z,22.40
2018-06-27T17:51:39.115Z,22.50
2018-06-27T17:54:08.272Z,22.50
2018-06-27T17:56:37.325Z,21.70
2018-06-27T17:59:06.735Z,22.00
2018-06-27T18:01:35.791Z,21.90
2018-06-27T18:06:33.545Z,23.00
2018-06-27T18:09:02.620Z,24.50
2018-06-27T18:11:31.667Z,26.20
2018-06-27T18:16:29.428Z,28.60
2018-06-27T18:18:58.491Z,30.10
2018-06-27T18:21:27.548Z,28.90
2018-06-27T18:23:56.624Z,28.80
2018-06-27T18:26:25.665Z,28.10
2018-06-27T18:28:54.724Z,26.90
2018-06-27T18:33:52.469Z,26.80
2018-06-27T18:36:21.513Z,26.20
2018-06-27T18:38:50.576Z,26.40
2018-06-27T18:41:19.619Z,26.30
2018-06-27T18:43:48.680Z,26.90
2018-06-27T18:48:46.427Z,27.90
2018-06-27T18:51:15.482Z,28.30
2018-06-27T18:53:44.552Z,30.50
2018-06-27T18:56:13.592Z,30.70
2018-06-27T18:58:42.694Z,32.90
2018-06-27T19:01:11.748Z,34.00
2018-06-27T19:08:38.256Z,36.80
2018-06-27T19:11:07.298Z,36.10
2018-06-27T19:13:36.384Z,36.90
2018-06-27T19:16:05.452Z,38.70
2018-06-27T19:18:34.597Z,39.50
2018-06-27T19:21:03.640Z,40.80
2018-06-27T19:23:32.684Z,41.70
2018-06-27T19:26:01.752Z,42.30
2018-06-27T19:28:30.805Z,42.10
2018-06-27T19:30:59.864Z,43.10
2018-06-27T19:33:28.928Z,43.40
2018-06-27T19:35:57.988Z,44.00
2018-06-27T19:38:27.311Z,44.70
2018-06-27T19:40:56.162Z,45.20
2018-06-27T19:45:53.944Z,46.50
2018-06-27T19:48:22.985Z,47.00
2018-06-27T19:50:52.100Z,47.20
2018-06-27T19:53:21.148Z,48.70
2018-06-27T19:55:50.208Z,48.80
2018-06-27T19:58:19.314Z,49.00
2018-06-27T20:00:49.168Z,49.30
2018-06-27T20:03:18.215Z,49.60
2018-06-27T20:05:47.286Z,50.00
2018-06-27T20:08:16.333Z,50.30
2018-06-27T20:13:14.092Z,50.70
2018-06-27T20:15:43.153Z,51.60
2018-06-27T20:18:12.201Z,51.30
2018-06-27T20:20:41.321Z,51.30
2018-06-27T20:23:10.369Z,51.70
2018-06-27T20:25:39.436Z,52.00
2018-06-27T20:28:08.579Z,52.10
2018-06-27T20:30:37.645Z,52.70
2018-06-27T20:33:06.695Z,52.80
2018-06-27T20:35:35.762Z,53.10
2018-06-27T20:38:04.812Z,53.10
2018-06-27T20:40:33.876Z,53.50
2018-06-27T20:43:02.922Z,53.80
2018-06-27T20:45:31.984Z,54.20
2018-06-27T20:48:01.040Z,54.50
2018-06-27T20:50:30.104Z,54.80
2018-06-27T20:52:59.147Z,55.10
2018-06-27T20:55:28.358Z,55.90
2018-06-27T21:00:27.110Z,56.50
2018-06-27T21:02:56.176Z,56.30
2018-06-27T21:05:25.244Z,56.60
2018-06-27T21:10:23.042Z,57.20
2018-06-27T21:12:52.161Z,57.00
2018-06-27T21:15:21.224Z,57.60
2018-06-27T21:20:19.414Z,57.30
2018-06-27T21:25:17.373Z,58.80
2018-06-27T21:27:46.461Z,57.80
2018-06-27T21:30:15.528Z,58.10
2018-06-27T21:32:44.579Z,58.20
2018-06-27T21:40:11.336Z,58.30
2018-06-27T21:42:40.408Z,58.70
2018-06-27T21:45:09.476Z,59.40
2018-06-27T21:47:38.540Z,58.90
2018-06-27T21:50:07.635Z,58.60
2018-06-27T21:52:36.679Z,58.70
2018-06-27T21:55:06.293Z,58.60
2018-06-27T21:57:35.492Z,58.80
2018-06-27T22:00:05.917Z,58.80
2018-06-27T22:02:34.960Z,59.30
2018-06-27T22:05:04.040Z,58.80
2018-06-27T22:07:33.096Z,59.20
2018-06-27T22:10:02.161Z,59.70
2018-06-27T22:12:31.211Z,59.40
2018-06-27T22:15:00.276Z,59.40
2018-06-27T22:17:29.320Z,59.30
2018-06-27T22:19:58.400Z,59.60
2018-06-27T22:22:27.455Z,59.90
2018-06-27T22:24:56.541Z,59.20
2018-06-27T22:29:54.275Z,59.50
2018-06-27T22:32:23.344Z,59.50
2018-06-27T22:34:52.376Z,60.20
2018-06-27T22:37:21.440Z,60.90
2018-06-27T22:39:50.476Z,61.50
2018-06-27T22:42:19.552Z,62.20
2018-06-27T22:44:48.608Z,62.60
2018-06-27T22:47:17.678Z,63.20
2018-06-27T22:49:46.715Z,63.70
2018-06-27T22:52:15.780Z,64.10
2018-06-27T22:57:13.548Z,64.10
2018-06-27T22:59:42.591Z,64.00
2018-06-27T23:02:11.658Z,64.40
2018-06-27T23:07:09.428Z,65.70
2018-06-27T23:09:38.471Z,64.90
2018-06-27T23:12:07.572Z,65.10
2018-06-27T23:14:36.620Z,65.50
2018-06-27T23:17:05.695Z,65.80
2018-06-27T23:19:34.745Z,66.30
2018-06-27T23:22:03.833Z,66.20
2018-06-27T23:24:32.932Z,66.60
2018-06-27T23:27:02.270Z,66.90
2018-06-27T23:29:38.135Z,67.20
2018-06-27T23:32:07.204Z,67.30
2018-06-27T23:34:36.253Z,67.10
2018-06-27T23:37:05.312Z,67.50
2018-06-27T23:39:34.356Z,67.50
2018-06-27T23:44:32.140Z,67.80
2018-06-27T23:49:30.290Z,68.20
2018-06-27T23:51:59.483Z,68.30
2018-06-27T23:54:28.528Z,68.40
2018-06-27T23:59:26.776Z,68.80
